Time;durP1;ratioP1;P1;durP2;ratioP2;P2;SDS_P1;SDS_P2;PMS_P1;PMS_P2;Temp;Humidity;BMP_temperature;BMP_pressure;BME280_temperature;BME280_humidity;BME280_pressure;Samples;Min_cycle;Max_cycle;Signal;HPM_P1;HPM_P2
2022/06/28 00:00:01;;;;;;;16.00;11.73;;;17.90;99.90;;;;;;5050074;28;20111;-47
2022/06/28 00:02:26;;;;;;;16.23;12.02;;;18.00;99.90;;;;;;5049529;28;20578;-49
2022/06/28 00:04:52;;;;;;;15.30;12.60;;;18.00;99.90;;;;;;5049756;28;20032;-47
2022/06/28 00:07:18;;;;;;;14.77;12.00;;;18.00;99.90;;;;;;5050348;28;20167;-48
2022/06/28 00:09:43;;;;;;;18.08;13.65;;;17.90;99.90;;;;;;5049738;28;20059;-48
2022/06/28 00:12:09;;;;;;;15.93;12.10;;;18.00;99.90;;;;;;5038572;28;20030;-48
2022/06/28 00:17:19;;;;;;;20.98;14.02;;;18.00;99.90;;;;;;5050607;28;20235;-49
2022/06/28 00:19:44;;;;;;;15.80;12.32;;;18.00;99.90;;;;;;5050421;28;20117;-48
2022/06/28 00:22:10;;;;;;;18.30;13.68;;;18.00;99.90;;;;;;5050391;28;20458;-47
2022/06/28 00:24:36;;;;;;;15.52;12.90;;;18.00;99.90;;;;;;5049664;28;20029;-48
2022/06/28 00:27:02;;;;;;;17.10;13.52;;;18.00;99.90;;;;;;5050205;28;20095;-49
2022/06/28 00:29:27;;;;;;;17.73;14.57;;;18.00;99.90;;;;;;5049548;28;20044;-48
2022/06/28 00:31:53;;;;;;;16.92;13.95;;;17.90;99.90;;;;;;5049857;28;20504;-47
2022/06/28 00:34:18;;;;;;;17.13;15.07;;;17.90;99.90;;;;;;5047818;28;20025;-49
2022/06/28 00:36:44;;;;;;;17.83;13.90;;;17.90;99.90;;;;;;5049845;28;20033;-49
2022/06/28 00:39:09;;;;;;;17.33;15.27;;;17.90;99.90;;;;;;5048199;28;20383;-47
2022/06/28 00:41:36;;;;;;;19.80;16.58;;;17.80;99.90;;;;;;5038592;28;20033;-47
2022/06/28 00:44:02;;;;;;;18.63;13.57;;;17.80;99.90;;;;;;5048774;28;20658;-47
2022/06/28 00:46:29;;;;;;;16.67;14.45;;;17.80;99.90;;;;;;5049317;28;20028;-47
2022/06/28 00:48:55;;;;;;;16.08;13.38;;;17.80;99.90;;;;;;5046126;28;20399;-47
2022/06/28 00:51:20;;;;;;;17.27;13.15;;;17.80;99.90;;;;;;5037634;28;20030;-47
2022/06/28 00:53:46;;;;;;;17.75;13.68;;;17.80;99.90;;;;;;5048377;28;20100;-47
2022/06/28 00:56:12;;;;;;;15.48;13.45;;;17.80;99.90;;;;;;5048823;28;20021;-46
2022/06/28 00:58:37;;;;;;;15.32;13.02;;;17.70;99.90;;;;;;5049017;28;20281;-48
2022/06/28 01:01:03;;;;;;;13.15;11.70;;;17.70;99.90;;;;;;5048961;28;20124;-47
2022/06/28 01:03:28;;;;;;;17.30;14.68;;;17.70;99.90;;;;;;5049201;28;20496;-47
2022/06/28 01:05:54;;;;;;;15.68;12.15;;;17.60;99.90;;;;;;5048732;28;20104;-48
2022/06/28 01:08:20;;;;;;;19.63;15.20;;;17.60;99.90;;;;;;5049165;28;20047;-49
2022/06/28 01:10:46;;;;;;;15.77;12.82;;;17.60;99.90;;;;;;5042055;28;20039;-48
2022/06/28 01:13:13;;;;;;;18.63;14.23;;;17.50;99.90;;;;;;5043232;28;20458;-48
2022/06/28 01:15:41;;;;;;;17.00;13.23;;;17.50;99.90;;;;;;5048209;28;20418;-48
2022/06/28 01:18:08;;;;;;;15.18;12.88;;;17.50;99.90;;;;;;5048964;28;20021;-48
2022/06/28 01:20:34;;;;;;;15.18;12.60;;;17.40;99.90;;;;;;5046876;28;20064;-48
2022/06/28 01:23:00;;;;;;;15.05;13.30;;;17.40;99.90;;;;;;5041566;28;20027;-48
2022/06/28 01:25:26;;;;;;;15.90;12.93;;;17.40;99.90;;;;;;5048231;28;20029;-48
2022/06/28 01:27:54;;;;;;;19.73;15.60;;;17.40;99.90;;;;;;5048931;28;20125;-48
2022/06/28 01:30:19;;;;;;;21.65;14.93;;;17.40;99.90;;;;;;5048517;28;20029;-50
2022/06/28 01:32:45;;;;;;;18.58;14.45;;;17.30;99.90;;;;;;5049041;28;20410;-47
2022/06/28 01:35:11;;;;;;;24.30;17.10;;;17.40;99.90;;;;;;5048206;28;20103;-49
2022/06/28 01:37:37;;;;;;;19.77;15.45;;;17.40;99.90;;;;;;5048626;28;20025;-48
2022/06/28 01:40:06;;;;;;;24.40;17.73;;;17.30;99.90;;;;;;5048792;28;20025;-48
2022/06/28 01:42:32;;;;;;;28.52;20.95;;;17.30;99.90;;;;;;5048923;28;20036;-49
2022/06/28 01:44:59;;;;;;;27.52;20.90;;;17.30;99.90;;;;;;5048143;28;20025;-48
2022/06/28 01:47:26;;;;;;;32.28;19.63;;;17.30;99.90;;;;;;5048932;28;20036;-48
2022/06/28 01:49:53;;;;;;;33.15;21.92;;;17.40;99.90;;;;;;5048251;28;20021;-48
2022/06/28 01:52:19;;;;;;;26.95;21.42;;;17.40;99.90;;;;;;5039012;28;20520;-48
2022/06/28 01:54:44;;;;;;;32.75;23.17;;;17.40;99.90;;;;;;5047950;28;20030;-48
2022/06/28 01:57:10;;;;;;;31.83;23.05;;;17.40;99.90;;;;;;5048460;28;20029;-48
2022/06/28 01:59:39;;;;;;;29.80;24.67;;;17.40;99.90;;;;;;5048183;28;20029;-47
2022/06/28 02:02:05;;;;;;;28.65;22.75;;;17.50;99.90;;;;;;5048764;28;20091;-49
2022/06/28 02:04:31;;;;;;;26.45;20.98;;;17.50;99.90;;;;;;5047803;28;20144;-47
2022/06/28 02:06:58;;;;;;;24.90;21.17;;;17.40;99.90;;;;;;5048418;28;20096;-49
2022/06/28 02:09:24;;;;;;;27.00;19.80;;;17.50;99.90;;;;;;5048239;28;20548;-47
2022/06/28 02:11:50;;;;;;;29.60;22.23;;;17.40;99.90;;;;;;5030383;28;20166;-48
2022/06/28 02:14:16;;;;;;;25.38;20.17;;;17.40;99.90;;;;;;5047591;28;20514;-47
2022/06/28 02:16:42;;;;;;;29.15;21.67;;;17.40;99.90;;;;;;5048348;28;20059;-47
2022/06/28 02:19:07;;;;;;;27.38;20.95;;;17.40;99.90;;;;;;5046162;28;20029;-47
2022/06/28 02:21:37;;;;;;;26.05;20.33;;;17.40;99.90;;;;;;5037365;28;20032;-47
2022/06/28 02:24:03;;;;;;;28.53;23.03;;;17.40;99.90;;;;;;5047374;28;20029;-47
2022/06/28 02:26:29;;;;;;;29.52;21.60;;;17.40;99.90;;;;;;5049677;28;20111;-47
2022/06/28 02:28:55;;;;;;;27.58;20.98;;;17.30;99.90;;;;;;5051979;28;20104;-48
2022/06/28 02:31:20;;;;;;;29.98;22.45;;;17.40;99.90;;;;;;5040839;28;20479;-47
2022/06/28 02:33:46;;;;;;;24.60;20.67;;;17.40;99.90;;;;;;5050990;28;20036;-47
2022/06/28 02:41:40;;;;;;;27.20;19.92;;;17.30;99.90;;;;;;5044895;28;20076;-47
2022/06/28 02:44:06;;;;;;;28.15;20.17;;;17.20;99.90;;;;;;5042772;28;20268;-47
2022/06/28 02:46:31;;;;;;;24.88;19.35;;;17.20;99.90;;;;;;5051359;28;20103;-46
2022/06/28 02:48:57;;;;;;;23.52;18.15;;;17.20;99.90;;;;;;5051413;28;20021;-48
2022/06/28 02:51:23;;;;;;;25.88;19.20;;;17.10;99.90;;;;;;5044994;28;20175;-47
2022/06/28 02:53:49;;;;;;;20.25;17.23;;;17.20;99.90;;;;;;5041860;28;20060;-50
2022/06/28 02:56:15;;;;;;;21.17;18.15;;;17.20;99.90;;;;;;5051053;28;20047;-47
2022/06/28 02:58:41;;;;;;;19.48;15.65;;;17.10;99.90;;;;;;5051578;28;20041;-47
2022/06/28 03:01:06;;;;;;;23.35;15.45;;;17.10;99.90;;;;;;5049872;28;20017;-47
2022/06/28 03:03:32;;;;;;;22.35;14.63;;;17.10;99.90;;;;;;5051216;28;20048;-47
2022/06/28 03:05:57;;;;;;;19.08;14.75;;;17.10;99.90;;;;;;5050769;28;20647;-47
2022/06/28 03:08:23;;;;;;;19.55;15.23;;;17.10;99.90;;;;;;5051490;28;20463;-46
2022/06/28 03:10:49;;;;;;;18.58;14.05;;;17.10;99.90;;;;;;5022602;28;20029;-46
2022/06/28 03:13:14;;;;;;;20.38;16.15;;;17.10;99.90;;;;;;5019980;28;20344;-48
2022/06/28 03:15:40;;;;;;;26.73;15.93;;;17.00;99.90;;;;;;5039916;28;20068;-46
2022/06/28 03:18:05;;;;;;;21.65;15.40;;;17.00;99.90;;;;;;5038776;28;20029;-47
2022/06/28 03:20:31;;;;;;;18.55;15.50;;;17.00;99.90;;;;;;5038831;28;20024;-47
2022/06/28 03:22:56;;;;;;;24.73;15.85;;;17.00;99.90;;;;;;5043400;28;20029;-48
2022/06/28 03:25:22;;;;;;;22.30;16.23;;;17.00;99.90;;;;;;5030949;28;20131;-48
2022/06/28 03:27:48;;;;;;;22.75;16.85;;;17.00;99.90;;;;;;5031416;28;20387;-47
2022/06/28 03:30:14;;;;;;;21.73;16.70;;;17.00;99.90;;;;;;5046293;28;20043;-49
2022/06/28 03:32:40;;;;;;;24.73;17.77;;;16.90;99.90;;;;;;5030927;28;20276;-49
2022/06/28 03:35:07;;;;;;;21.58;16.85;;;16.90;99.90;;;;;;5030311;28;20120;-50
2022/06/28 03:37:33;;;;;;;21.38;15.98;;;16.90;99.90;;;;;;5028529;28;20079;-49
2022/06/28 03:39:58;;;;;;;26.50;17.08;;;16.90;99.90;;;;;;5031074;28;20542;-48
2022/06/28 03:42:24;;;;;;;20.65;15.05;;;16.90;99.90;;;;;;5030953;28;20127;-48
2022/06/28 03:44:50;;;;;;;22.35;16.05;;;16.90;99.90;;;;;;5045200;28;20495;-47
2022/06/28 03:47:16;;;;;;;16.75;13.45;;;17.00;99.90;;;;;;5030690;28;20036;-46
2022/06/28 03:49:41;;;;;;;21.85;14.15;;;16.90;99.90;;;;;;5032779;28;20457;-48
2022/06/28 03:52:07;;;;;;;22.23;14.32;;;16.90;99.90;;;;;;5036271;28;20044;-46
2022/06/28 03:54:33;;;;;;;19.65;14.15;;;16.90;99.90;;;;;;5024196;28;20041;-47
2022/06/28 03:56:59;;;;;;;21.27;13.88;;;17.00;99.90;;;;;;5030440;28;20057;-50
2022/06/28 03:59:25;;;;;;;16.48;13.38;;;17.00;99.90;;;;;;5030361;28;20033;-47
2022/06/28 04:01:51;;;;;;;20.15;14.77;;;17.00;99.90;;;;;;5030125;28;20033;-47
2022/06/28 04:04:16;;;;;;;21.35;15.63;;;17.00;99.90;;;;;;5029586;28;20044;-47
2022/06/28 04:06:42;;;;;;;21.80;15.50;;;17.00;99.90;;;;;;5045387;28;20026;-46
2022/06/28 04:09:07;;;;;;;17.58;13.00;;;17.00;99.90;;;;;;5030181;28;20095;-47
2022/06/28 04:11:33;;;;;;;16.98;13.73;;;17.10;99.90;;;;;;5024594;28;20098;-46
2022/06/28 04:13:58;;;;;;;19.02;13.90;;;17.10;99.90;;;;;;5029970;28;20613;-48
2022/06/28 04:16:24;;;;;;;17.85;12.85;;;17.10;99.90;;;;;;5029272;28;20119;-50
2022/06/28 04:18:50;;;;;;;14.50;12.82;;;17.10;99.90;;;;;;5030372;28;20018;-48
2022/06/28 04:21:18;;;;;;;21.10;14.32;;;17.10;99.90;;;;;;5037769;28;20037;-47
2022/06/28 04:23:44;;;;;;;18.80;14.13;;;17.10;99.90;;;;;;5039830;28;20083;-47
2022/06/28 04:26:10;;;;;;;17.23;12.82;;;17.00;99.90;;;;;;5049198;28;20028;-46
2022/06/28 04:28:36;;;;;;;16.38;12.65;;;17.00;99.90;;;;;;5049685;28;20557;-48
2022/06/28 04:31:02;;;;;;;18.17;14.60;;;17.10;99.90;;;;;;5049291;28;20104;-49
2022/06/28 04:33:29;;;;;;;18.98;13.82;;;17.10;99.90;;;;;;5049546;28;20386;-49
2022/06/28 04:35:55;;;;;;;16.05;13.10;;;17.10;99.90;;;;;;5048874;28;20017;-47
2022/06/28 04:38:21;;;;;;;19.75;15.18;;;17.00;99.90;;;;;;5049593;28;20021;-50
2022/06/28 04:40:47;;;;;;;18.15;13.75;;;17.00;99.90;;;;;;5029617;28;20057;-48
2022/06/28 04:43:12;;;;;;;19.50;14.30;;;16.90;99.90;;;;;;5017494;28;20091;-48
2022/06/28 04:45:38;;;;;;;23.77;14.20;;;16.90;99.90;;;;;;5026982;28;20579;-49
2022/06/28 04:48:04;;;;;;;23.05;16.58;;;16.90;99.90;;;;;;5009756;28;20661;-47
2022/06/28 04:50:30;;;;;;;20.05;15.55;;;16.90;99.90;;;;;;5020096;28;20029;-47
2022/06/28 04:52:55;;;;;;;18.00;14.05;;;16.80;99.90;;;;;;5036774;28;20040;-47
2022/06/28 04:55:21;;;;;;;20.60;15.05;;;16.90;99.90;;;;;;5036716;28;20269;-47
2022/06/28 04:57:46;;;;;;;21.50;15.07;;;16.90;99.90;;;;;;5048083;28;20021;-47
2022/06/28 05:00:13;;;;;;;18.35;13.80;;;16.80;99.90;;;;;;5048756;28;20513;-48
2022/06/28 05:02:39;;;;;;;19.85;16.05;;;17.00;99.90;;;;;;5034162;28;20045;-47
2022/06/28 05:05:05;;;;;;;23.88;17.20;;;16.90;99.90;;;;;;5033855;28;20094;-47
2022/06/28 05:07:32;;;;;;;21.83;16.83;;;17.00;99.90;;;;;;5019322;28;20453;-47
2022/06/28 05:09:59;;;;;;;18.63;15.07;;;17.00;99.90;;;;;;5026129;28;20021;-50
2022/06/28 05:12:24;;;;;;;28.30;18.38;;;17.00;99.90;;;;;;5028808;28;20466;-47
2022/06/28 05:14:50;;;;;;;17.88;14.48;;;17.00;99.90;;;;;;5010086;28;20300;-48
2022/06/28 05:17:15;;;;;;;19.38;14.40;;;17.00;99.90;;;;;;5008947;28;20083;-47
2022/06/28 05:19:41;;;;;;;22.83;16.17;;;17.00;99.90;;;;;;5008977;28;20030;-47
2022/06/28 05:22:08;;;;;;;20.65;15.98;;;17.00;99.90;;;;;;5019726;28;20025;-48
2022/06/28 05:24:34;;;;;;;21.92;15.50;;;17.00;99.90;;;;;;5039937;28;20047;-49
2022/06/28 05:27:00;;;;;;;21.38;17.73;;;17.00;99.90;;;;;;5048509;28;20074;-47
2022/06/28 05:29:25;;;;;;;15.55;12.50;;;17.10;99.90;;;;;;5048245;28;20021;-49
2022/06/28 05:31:51;;;;;;;24.35;16.63;;;17.10;99.90;;;;;;5048599;28;20029;-51
2022/06/28 05:34:16;;;;;;;20.20;13.90;;;17.10;99.90;;;;;;5048283;28;20025;-48
2022/06/28 05:36:42;;;;;;;21.52;15.35;;;17.10;99.90;;;;;;5047455;28;20398;-48
2022/06/28 05:39:08;;;;;;;23.30;15.13;;;17.20;99.90;;;;;;5048731;28;20485;-47
2022/06/28 05:41:34;;;;;;;21.23;14.25;;;17.20;99.90;;;;;;5048710;28;20455;-47
2022/06/28 05:43:59;;;;;;;23.00;15.32;;;17.30;99.90;;;;;;5047967;28;20863;-47
2022/06/28 05:46:25;;;;;;;20.20;15.90;;;17.30;99.90;;;;;;5047320;28;20025;-47
2022/06/28 05:48:51;;;;;;;20.42;16.38;;;17.40;99.90;;;;;;5048328;28;20032;-48
2022/06/28 05:51:17;;;;;;;25.33;17.45;;;17.40;99.90;;;;;;5048645;28;20112;-50
2022/06/28 05:53:42;;;;;;;25.45;18.00;;;17.40;99.90;;;;;;5039735;28;20021;-48
2022/06/28 05:56:08;;;;;;;22.42;17.30;;;17.40;99.90;;;;;;5046556;28;20137;-47
2022/06/28 05:58:33;;;;;;;24.52;16.52;;;17.40;99.90;;;;;;5048156;28;20025;-47
2022/06/28 06:00:58;;;;;;;21.48;15.52;;;17.30;99.90;;;;;;5049117;28;20078;-47
2022/06/28 06:03:24;;;;;;;17.40;15.07;;;17.20;99.90;;;;;;5052527;28;20586;-48
2022/06/28 06:05:50;;;;;;;20.80;15.15;;;17.40;99.90;;;;;;5051990;28;20126;-47
2022/06/28 06:08:15;;;;;;;17.98;14.85;;;17.50;99.90;;;;;;5052415;28;20025;-47
2022/06/28 06:10:41;;;;;;;21.58;14.65;;;17.50;99.90;;;;;;5052160;28;20028;-47
2022/06/28 06:13:06;;;;;;;18.77;13.48;;;17.70;99.90;;;;;;5048258;28;20035;-48
2022/06/28 06:15:32;;;;;;;18.20;15.38;;;17.70;99.90;;;;;;5040103;28;20021;-50
2022/06/28 06:17:57;;;;;;;24.23;16.10;;;17.70;99.90;;;;;;5052432;28;20025;-47
2022/06/28 06:20:23;;;;;;;16.35;13.82;;;17.70;99.90;;;;;;5052405;28;20051;-47
2022/06/28 06:22:48;;;;;;;17.35;13.35;;;17.60;99.90;;;;;;5047929;28;20030;-47
2022/06/28 06:25:16;;;;;;;17.25;13.45;;;17.70;99.90;;;;;;5046196;28;20036;-46
2022/06/28 06:27:42;;;;;;;18.05;13.07;;;17.80;99.90;;;;;;5052156;28;20059;-46
2022/06/28 06:30:08;;;;;;;20.80;13.15;;;17.90;99.90;;;;;;5051799;28;20052;-48
2022/06/28 06:32:33;;;;;;;17.73;12.63;;;17.90;99.90;;;;;;5050721;28;20249;-48
2022/06/28 06:34:59;;;;;;;14.00;10.90;;;17.90;99.90;;;;;;5051727;28;20168;-47
2022/06/28 06:37:25;;;;;;;20.52;12.93;;;17.90;99.90;;;;;;5051748;28;20181;-46
2022/06/28 06:39:50;;;;;;;15.75;13.90;;;17.90;99.90;;;;;;5050545;28;20032;-48
2022/06/28 06:42:16;;;;;;;14.20;11.65;;;17.90;99.90;;;;;;5043399;28;20086;-47
2022/06/28 06:44:41;;;;;;;16.15;12.55;;;17.90;99.90;;;;;;5051056;28;20180;-47
2022/06/28 06:47:07;;;;;;;16.52;13.93;;;17.80;99.90;;;;;;5051654;28;20064;-49
2022/06/28 06:49:33;;;;;;;19.35;13.07;;;17.70;99.90;;;;;;5051862;28;20068;-48
2022/06/28 06:51:58;;;;;;;20.45;14.07;;;17.70;99.90;;;;;;5051681;28;20024;-47
2022/06/28 06:54:24;;;;;;;16.23;12.80;;;17.60;99.90;;;;;;5051300;28;20021;-47
2022/06/28 06:56:49;;;;;;;18.92;14.93;;;17.60;99.90;;;;;;5050067;28;20021;-48
2022/06/28 06:59:16;;;;;;;21.55;13.27;;;17.50;99.90;;;;;;5051706;28;20021;-47
2022/06/28 07:01:42;;;;;;;17.85;13.60;;;17.50;99.90;;;;;;5051487;28;20131;-47
2022/06/28 07:04:08;;;;;;;13.80;11.23;;;17.60;99.90;;;;;;5050967;28;20041;-48
2022/06/28 07:06:34;;;;;;;16.17;13.13;;;17.60;99.90;;;;;;5046262;28;20480;-47
2022/06/28 07:09:00;;;;;;;20.00;13.27;;;17.70;99.90;;;;;;5042838;28;20225;-49
2022/06/28 07:11:25;;;;;;;19.90;13.25;;;17.70;99.90;;;;;;5050947;28;20025;-48
2022/06/28 07:13:51;;;;;;;15.75;12.77;;;17.80;99.90;;;;;;5051310;28;20033;-49
2022/06/28 07:16:17;;;;;;;14.35;11.77;;;17.80;99.90;;;;;;5050480;28;20436;-48
2022/06/28 07:18:43;;;;;;;14.68;10.50;;;18.00;99.90;;;;;;5050998;28;20027;-48
2022/06/28 07:21:09;;;;;;;20.50;12.32;;;18.10;99.90;;;;;;5051077;28;20052;-47
2022/06/28 07:23:34;;;;;;;17.63;12.27;;;18.10;99.90;;;;;;5040201;28;20037;-47
2022/06/28 07:26:00;;;;;;;15.50;10.50;;;18.10;99.90;;;;;;5050576;28;20025;-47
2022/06/28 07:28:25;;;;;;;13.18;10.07;;;18.20;99.90;;;;;;5051260;28;20482;-47
2022/06/28 07:30:51;;;;;;;13.98;11.85;;;18.30;99.90;;;;;;5050594;28;20478;-47
2022/06/28 07:33:16;;;;;;;15.57;11.25;;;18.60;99.90;;;;;;5050956;28;20025;-48
2022/06/28 07:35:44;;;;;;;11.95;9.75;;;18.60;99.90;;;;;;5043816;28;20558;-49
2022/06/28 07:38:09;;;;;;;12.68;10.23;;;18.90;99.90;;;;;;5028095;28;20265;-48
2022/06/28 07:40:36;;;;;;;12.02;9.05;;;19.10;99.90;;;;;;5037473;28;20136;-48
2022/06/28 07:43:02;;;;;;;12.93;8.13;;;19.20;99.90;;;;;;5042968;28;20483;-48
2022/06/28 07:45:28;;;;;;;10.85;8.60;;;19.40;99.90;;;;;;5049091;28;20075;-48
2022/06/28 07:47:53;;;;;;;9.13;6.68;;;19.50;99.90;;;;;;5050277;28;20247;-48
2022/06/28 07:53:05;;;;;;;12.90;7.95;;;20.00;99.90;;;;;;5017873;28;20090;-48
2022/06/28 07:55:31;;;;;;;16.63;8.50;;;20.20;99.90;;;;;;5014638;28;20291;-48
2022/06/28 07:57:58;;;;;;;8.45;6.13;;;20.20;99.90;;;;;;5025777;28;20079;-49
2022/06/28 08:00:24;;;;;;;9.68;7.28;;;20.50;99.90;;;;;;5027223;28;20029;-50
2022/06/28 08:02:50;;;;;;;13.23;7.25;;;20.40;99.90;;;;;;5027923;28;20033;-47
2022/06/28 08:05:16;;;;;;;13.00;6.88;;;20.40;99.90;;;;;;5028937;28;20021;-49
2022/06/28 08:07:42;;;;;;;10.10;7.18;;;20.30;99.90;;;;;;5029568;28;20041;-46
2022/06/28 08:10:09;;;;;;;7.78;6.55;;;20.40;99.90;;;;;;5035368;28;20033;-47
2022/06/28 08:12:35;;;;;;;8.38;4.95;;;20.70;99.90;;;;;;5040699;28;20033;-47
2022/06/28 08:15:01;;;;;;;8.35;5.03;;;21.30;99.90;;;;;;5046343;28;20570;-48
2022/06/28 08:17:27;;;;;;;4.65;3.15;;;22.50;99.70;;;;;;5045862;28;20074;-48
2022/06/28 08:19:52;;;;;;;4.88;3.33;;;23.60;97.30;;;;;;5048260;28;20452;-47
2022/06/28 08:22:18;;;;;;;4.25;3.05;;;25.00;93.60;;;;;;5045054;28;20033;-49
2022/06/28 08:24:43;;;;;;;3.08;2.67;;;26.00;90.50;;;;;;5038747;28;20025;-50
2022/06/28 08:27:09;;;;;;;2.78;2.50;;;26.30;88.40;;;;;;5034053;28;20040;-49
2022/06/28 08:29:35;;;;;;;2.83;2.25;;;26.90;83.50;;;;;;5029071;28;20096;-48
2022/06/28 08:32:02;;;;;;;2.65;2.33;;;27.60;81.00;;;;;;5027731;28;20644;-51
2022/06/28 08:34:28;;;;;;;6.00;3.10;;;28.40;75.60;;;;;;5028249;28;20018;-51
2022/06/28 08:36:53;;;;;;;4.88;2.50;;;29.10;72.20;;;;;;5029110;28;20029;-51
2022/06/28 08:39:19;;;;;;;2.88;2.35;;;29.60;71.40;;;;;;5019527;28;20034;-51
2022/06/28 08:41:46;;;;;;;5.40;2.70;;;29.70;68.80;;;;;;5009650;28;20084;-49
2022/06/28 08:44:13;;;;;;;3.97;2.00;;;29.10;66.30;;;;;;5008328;28;20515;-50
2022/06/28 08:46:40;;;;;;;9.65;2.95;;;29.50;67.00;;;;;;5007488;28;20502;-51
2022/06/28 08:49:33;;;;;;;2.75;2.20;;;29.30;65.30;;;;;;5009101;28;20109;-51
2022/06/28 08:51:58;;;;;;;6.68;2.55;;;30.30;62.60;;;;;;5017551;28;20183;-51
2022/06/28 08:54:26;;;;;;;2.97;1.85;;;30.80;62.50;;;;;;5039392;28;20268;-49
2022/06/28 08:56:52;;;;;;;4.28;2.20;;;31.70;61.10;;;;;;5018982;28;20033;-50
2022/06/28 08:59:18;;;;;;;4.25;1.85;;;30.50;59.80;;;;;;5019645;28;20026;-49
2022/06/28 09:01:43;;;;;;;4.07;1.42;;;29.50;61.50;;;;;;5014862;28;20037;-49
2022/06/28 09:04:10;;;;;;;2.63;1.70;;;28.40;60.10;;;;;;5019660;28;20088;-50
2022/06/28 09:06:36;;;;;;;3.83;1.70;;;29.00;58.90;;;;;;5017425;28;20032;-48
2022/06/28 09:09:01;;;;;;;2.08;1.30;;;29.30;59.50;;;;;;5019301;28;20017;-48
2022/06/28 09:11:43;;;;;;;3.38;1.70;;;30.40;57.90;;;;;;5017368;28;20436;-50
2022/06/28 09:14:22;;;;;;;2.08;1.40;;;31.40;57.20;;;;;;5023938;28;20018;-50
2022/06/28 09:16:48;;;;;;;2.28;1.60;;;31.00;55.80;;;;;;5024335;28;20014;-51
2022/06/28 09:19:14;;;;;;;4.53;1.90;;;30.50;56.00;;;;;;5017810;28;20048;-47
2022/06/28 09:21:44;;;;;;;5.53;1.63;;;29.10;58.90;;;;;;5019573;28;20364;-50
2022/06/28 09:24:09;;;;;;;3.40;1.75;;;27.90;59.50;;;;;;5017864;28;20025;-50
2022/06/28 09:26:35;;;;;;;4.07;2.28;;;28.00;59.80;;;;;;5016774;28;20067;-50
2022/06/28 09:29:01;;;;;;;5.25;1.60;;;29.30;57.90;;;;;;5017592;28;20030;-50
2022/06/28 09:31:29;;;;;;;3.05;1.40;;;30.50;55.40;;;;;;5020276;28;20033;-51
2022/06/28 09:34:00;;;;;;;3.50;1.52;;;31.70;55.20;;;;;;5008636;28;20029;-51
2022/06/28 09:36:28;;;;;;;2.78;1.52;;;32.40;51.80;;;;;;5008933;28;20033;-51
2022/06/28 09:38:56;;;;;;;3.55;1.50;;;31.40;51.70;;;;;;5008971;28;20069;-51
2022/06/28 09:41:29;;;;;;;1.73;1.10;;;31.30;52.30;;;;;;5008843;28;20457;-49
2022/06/28 09:44:00;;;;;;;1.67;1.10;;;31.00;51.30;;;;;;5018068;28;20107;-51
2022/06/28 09:46:28;;;;;;;3.00;1.23;;;31.90;52.00;;;;;;5033389;28;20026;-51
2022/06/28 09:49:05;;;;;;;2.97;1.00;;;32.20;49.60;;;;;;5020978;28;20044;-51
2022/06/28 09:51:32;;;;;;;5.32;1.40;;;32.40;48.10;;;;;;5021128;28;20124;-51
2022/06/28 09:54:06;;;;;;;3.75;1.30;;;33.00;49.60;;;;;;5035772;28;20029;-52
2022/06/28 09:56:42;;;;;;;8.05;1.20;;;33.30;49.50;;;;;;5028363;28;20071;-52
2022/06/28 09:59:10;;;;;;;1.92;1.10;;;33.70;47.30;;;;;;5027296;28;20141;-51
2022/06/28 10:01:37;;;;;;;2.28;1.20;;;34.80;45.60;;;;;;5016675;28;20037;-51
2022/06/28 10:04:03;;;;;;;1.67;1.10;;;34.60;45.90;;;;;;5011910;28;20068;-51
2022/06/28 10:06:29;;;;;;;4.38;1.52;;;35.10;45.20;;;;;;5018785;28;20026;-52
2022/06/28 10:08:56;;;;;;;3.42;1.10;;;34.90;45.30;;;;;;5019125;28;20105;-51
2022/06/28 10:11:21;;;;;;;14.82;13.25;;;34.80;45.70;;;;;;5017821;28;20041;-52
2022/06/28 10:16:48;;;;;;;1.92;1.33;;;35.60;45.20;;;;;;5019143;28;20036;-52
2022/06/28 10:19:17;;;;;;;2.40;1.45;;;36.00;44.90;;;;;;5019036;28;20543;-51
2022/06/28 10:21:46;;;;;;;;;;;36.10;43.20;;;;;;5022297;28;20208;-51
2022/06/28 10:24:13;;;;;;;1.60;1.05;;;36.50;44.00;;;;;;5019691;28;19909;-51
2022/06/28 10:26:43;;;;;;;3.20;1.10;;;36.10;44.10;;;;;;5018692;28;20071;-51
2022/06/28 10:29:09;;;;;;;5.63;1.70;;;36.80;44.00;;;;;;5018728;28;20045;-52
2022/06/28 10:31:37;;;;;;;3.38;1.40;;;36.80;42.40;;;;;;5016536;28;20021;-51
2022/06/28 10:34:07;;;;;;;2.55;1.08;;;37.00;42.60;;;;;;5017113;28;20017;-52
2022/06/28 10:36:57;;;;;;;4.35;1.85;;;37.10;42.30;;;;;;5018890;28;20388;-52
2022/06/28 10:39:32;;;;;;;2.67;1.35;;;37.10;41.70;;;;;;5018944;28;20370;-51
2022/06/28 10:42:01;;;;;;;5.10;2.00;;;36.60;43.20;;;;;;5019474;28;20026;-52
2022/06/28 10:44:42;;;;;;;2.38;0.90;;;36.20;41.00;;;;;;5017068;28;20021;-52
2022/06/28 10:47:08;;;;;;;4.20;2.00;;;36.20;42.70;;;;;;5020518;28;20022;-51
2022/06/28 10:49:44;;;;;;;7.45;6.00;;;36.70;41.80;;;;;;5020624;28;20028;-52
2022/06/28 10:52:12;;;;;;;1.92;1.50;;;36.00;42.30;;;;;;5027062;28;20013;-52
2022/06/28 10:54:39;;;;;;;3.38;1.35;;;36.20;43.10;;;;;;5022553;28;20399;-52
2022/06/28 10:57:26;;;;;;;2.60;1.17;;;36.50;42.50;;;;;;5024063;28;20030;-51
2022/06/28 10:59:54;;;;;;;3.53;1.40;;;34.60;43.20;;;;;;5013642;28;20022;-50
2022/06/28 11:02:20;;;;;;;3.60;1.70;;;33.30;44.30;;;;;;5025304;28;20691;-50
2022/06/28 11:05:02;;;;;;;2.92;1.52;;;32.40;46.00;;;;;;5013434;28;20033;-50
2022/06/28 11:07:30;;;;;;;4.57;1.80;;;31.40;47.00;;;;;;5027939;28;20132;-50
2022/06/28 11:10:03;;;;;;;3.00;1.55;;;30.60;49.00;;;;;;5015893;28;20022;-51
2022/06/28 11:12:29;;;;;;;4.88;1.92;;;31.00;50.90;;;;;;5015339;28;20049;-51
2022/06/28 11:15:08;;;;;;;4.07;1.90;;;30.40;50.30;;;;;;5014829;28;20030;-48
2022/06/28 11:17:37;;;;;;;6.32;1.73;;;31.40;49.90;;;;;;5020606;28;20028;-51
2022/06/28 11:20:13;;;;;;;4.30;1.80;;;32.30;47.70;;;;;;5014260;28;20152;-49
2022/06/28 11:22:44;;;;;;;2.85;1.60;;;33.10;46.50;;;;;;5023332;28;20115;-51
2022/06/28 11:25:15;;;;;;;2.17;1.05;;;34.00;44.40;;;;;;5027477;28;20503;-50
2022/06/28 11:27:48;;;;;;;4.00;1.80;;;34.50;43.40;;;;;;5027796;28;20025;-51
2022/06/28 11:30:15;;;;;;;3.25;1.33;;;34.50;44.00;;;;;;5028902;28;20029;-51
2022/06/28 11:32:45;;;;;;;4.45;1.63;;;34.50;44.20;;;;;;5028477;28;20617;-51
2022/06/28 11:35:11;;;;;;;2.85;1.20;;;35.50;43.70;;;;;;5019104;28;20076;-52
2022/06/28 11:37:53;;;;;;;1.83;1.23;;;36.00;42.20;;;;;;5022245;28;20054;-52
2022/06/28 11:40:38;;;;;;;3.28;1.10;;;36.00;42.90;;;;;;5051616;28;20266;-51
2022/06/28 11:43:09;;;;;;;3.50;1.88;;;36.10;43.50;;;;;;5023928;28;20609;-52
2022/06/28 11:45:49;;;;;;;2.50;1.33;;;35.70;41.90;;;;;;5016176;28;20375;-52
2022/06/28 11:48:21;;;;;;;6.50;1.48;;;35.60;43.60;;;;;;5028884;28;20426;-52
2022/06/28 11:50:50;;;;;;;4.22;1.30;;;36.00;43.30;;;;;;5031470;28;20026;-51
2022/06/28 11:53:16;;;;;;;;;;;34.90;41.80;;;;;;5028022;28;20325;-51
2022/06/28 11:55:49;;;;;;;6.18;1.42;;;34.00;42.30;;;;;;5032847;28;20370;-51
2022/06/28 11:58:20;;;;;;;8.13;6.95;;;33.80;43.80;;;;;;5049581;28;20045;-51
2022/06/28 12:01:07;;;;;;;7.80;5.20;;;34.20;44.00;;;;;;5050242;28;20045;-51
2022/06/28 12:03:35;;;;;;;5.30;1.42;;;34.30;43.20;;;;;;5035202;28;20033;-51
2022/06/28 12:06:02;;;;;;;1.73;1.08;;;34.10;42.30;;;;;;5023361;28;20032;-49
2022/06/28 12:08:49;;;;;;;2.88;1.10;;;33.00;43.50;;;;;;5034050;28;20044;-51
2022/06/28 12:11:48;;;;;;;3.63;1.63;;;31.90;45.60;;;;;;5045282;28;20029;-50
2022/06/28 12:14:15;;;;;;;3.87;1.13;;;31.80;46.50;;;;;;5045559;28;20479;-50
2022/06/28 12:16:49;;;;;;;3.17;1.30;;;31.30;45.50;;;;;;5041920;28;20098;-51
2022/06/28 12:19:20;;;;;;;7.32;1.33;;;31.60;47.20;;;;;;5050856;28;20024;-49
2022/06/28 12:22:12;;;;;;;2.53;1.30;;;31.40;45.70;;;;;;5048937;28;20021;-50
2022/06/28 12:24:55;;;;;;;2.20;1.13;;;31.20;46.50;;;;;;5041000;28;20036;-49
2022/06/28 12:27:23;;;;;;;3.75;1.35;;;31.30;47.70;;;;;;5049962;28;20045;-48
2022/06/28 12:29:53;;;;;;;2.95;1.50;;;30.60;46.40;;;;;;5026782;28;20088;-51
2022/06/28 12:32:20;;;;;;;5.60;1.20;;;29.50;46.30;;;;;;5019343;28;20100;-49
2022/06/28 12:34:46;;;;;;;3.10;1.30;;;29.30;47.00;;;;;;5019848;28;20064;-50
2022/06/28 12:37:12;;;;;;;2.35;1.20;;;29.40;47.50;;;;;;5018616;28;20026;-48
2022/06/28 12:39:38;;;;;;;3.50;1.60;;;29.60;46.60;;;;;;5022720;28;20036;-49
2022/06/28 12:42:05;;;;;;;2.90;1.23;;;29.40;46.40;;;;;;5026983;28;20041;-50
2022/06/28 12:44:30;;;;;;;2.88;1.20;;;29.00;47.00;;;;;;5021544;28;20417;-50
2022/06/28 12:46:58;;;;;;;2.08;1.25;;;28.50;47.40;;;;;;5021197;28;20017;-48
2022/06/28 12:49:24;;;;;;;2.50;1.50;;;28.10;48.70;;;;;;5022973;28;20031;-48